AMS weather

Amsterdam Airport Schiphol
Amsterdam, Noord-Holland, Netherlands

Public forecast

Using degrees Celsius for public forecast. Weather courtesy of forecast.io.

Current aviation weather report (METAR) for Amsterdam Airport Schiphol

Retrieved 2020/04/07 22:25 UTC (26 minutes ago):

EHAM 072225Z 09007KT CAVOK 12/06 Q1028 NOSIG

Aviation forecast (TAF) for Amsterdam Airport Schiphol

Retrieved 2020/04/07 18:27 UTC (4 hours ago):

TAF TAF EHAM 071658Z 0718/0824 07007KT CAVOK PROB30 0810/0818 31008KT